sensor_id;sensor_type;location;lat;lon;timestamp;temperature;humidity
19060;DHT22;9663;48.996;8.334;2023-10-09T00:01:07;18.00;50.90
19060;DHT22;9663;48.996;8.334;2023-10-09T00:03:45;18.00;50.90
19060;DHT22;9663;48.996;8.334;2023-10-09T00:06:17;18.00;51.00
19060;DHT22;9663;48.996;8.334;2023-10-09T00:08:49;18.10;50.70
19060;DHT22;9663;48.996;8.334;2023-10-09T00:11:20;18.10;50.70
19060;DHT22;9663;48.996;8.334;2023-10-09T00:13:47;18.10;50.70
19060;DHT22;9663;48.996;8.334;2023-10-09T00:16:19;18.10;50.70
19060;DHT22;9663;48.996;8.334;2023-10-09T00:19:01;18.10;50.70
19060;DHT22;9663;48.996;8.334;2023-10-09T00:21:45;18.20;50.70
19060;DHT22;9663;48.996;8.334;2023-10-09T00:24:13;18.20;50.80
19060;DHT22;9663;48.996;8.334;2023-10-09T00:26:49;18.10;50.70
19060;DHT22;9663;48.996;8.334;2023-10-09T00:29:16;18.10;51.00
19060;DHT22;9663;48.996;8.334;2023-10-09T00:31:51;18.20;50.70
19060;DHT22;9663;48.996;8.334;2023-10-09T00:34:29;18.20;50.90
19060;DHT22;9663;48.996;8.334;2023-10-09T00:36:55;18.20;50.70
19060;DHT22;9663;48.996;8.334;2023-10-09T00:39:23;18.20;50.70
19060;DHT22;9663;48.996;8.334;2023-10-09T00:42:06;18.20;50.70
19060;DHT22;9663;48.996;8.334;2023-10-09T00:44:32;18.20;50.70
19060;DHT22;9663;48.996;8.334;2023-10-09T00:47:09;18.20;50.80
19060;DHT22;9663;48.996;8.334;2023-10-09T00:49:58;18.10;50.70
19060;DHT22;9663;48.996;8.334;2023-10-09T00:52:30;18.10;51.20
19060;DHT22;9663;48.996;8.334;2023-10-09T00:55:10;18.10;51.00
19060;DHT22;9663;48.996;8.334;2023-10-09T00:57:45;18.00;50.80
19060;DHT22;9663;48.996;8.334;2023-10-09T01:00:16;18.00;50.90
19060;DHT22;9663;48.996;8.334;2023-10-09T01:03:05;18.00;51.00
19060;DHT22;9663;48.996;8.334;2023-10-09T01:05:48;17.90;51.00
19060;DHT22;9663;48.996;8.334;2023-10-09T01:08:22;17.90;51.10
19060;DHT22;9663;48.996;8.334;2023-10-09T01:10:58;17.80;51.10
19060;DHT22;9663;48.996;8.334;2023-10-09T01:13:42;17.80;51.20
19060;DHT22;9663;48.996;8.334;2023-10-09T01:16:14;17.80;51.60
19060;DHT22;9663;48.996;8.334;2023-10-09T01:18:46;17.80;51.40
19060;DHT22;9663;48.996;8.334;2023-10-09T01:21:18;17.80;51.60
19060;DHT22;9663;48.996;8.334;2023-10-09T01:23:49;17.80;51.50
19060;DHT22;9663;48.996;8.334;2023-10-09T01:26:32;17.80;51.50
19060;DHT22;9663;48.996;8.334;2023-10-09T01:29:08;17.80;51.60
19060;DHT22;9663;48.996;8.334;2023-10-09T01:31:49;17.80;51.80
19060;DHT22;9663;48.996;8.334;2023-10-09T01:34:22;17.80;51.70
19060;DHT22;9663;48.996;8.334;2023-10-09T01:37:08;17.80;51.80
19060;DHT22;9663;48.996;8.334;2023-10-09T01:39:45;17.80;51.80
19060;DHT22;9663;48.996;8.334;2023-10-09T01:42:11;17.80;51.80
19060;DHT22;9663;48.996;8.334;2023-10-09T01:44:48;17.80;52.00
19060;DHT22;9663;48.996;8.334;2023-10-09T01:47:14;17.80;51.90
19060;DHT22;9663;48.996;8.334;2023-10-09T01:49:43;17.80;52.00
19060;DHT22;9663;48.996;8.334;2023-10-09T01:52:12;17.80;52.00
19060;DHT22;9663;48.996;8.334;2023-10-09T01:54:42;17.80;52.20
19060;DHT22;9663;48.996;8.334;2023-10-09T01:57:14;17.80;52.10
19060;DHT22;9663;48.996;8.334;2023-10-09T01:59:42;17.80;52.10
19060;DHT22;9663;48.996;8.334;2023-10-09T02:02:22;17.80;52.10
19060;DHT22;9663;48.996;8.334;2023-10-09T02:05:06;17.80;52.10
19060;DHT22;9663;48.996;8.334;2023-10-09T02:07:38;17.80;52.50
19060;DHT22;9663;48.996;8.334;2023-10-09T02:10:14;17.80;52.10
19060;DHT22;9663;48.996;8.334;2023-10-09T02:13:04;17.80;52.40
19060;DHT22;9663;48.996;8.334;2023-10-09T02:15:38;17.80;52.40
19060;DHT22;9663;48.996;8.334;2023-10-09T02:18:14;17.80;52.30
19060;DHT22;9663;48.996;8.334;2023-10-09T02:23:24;17.70;52.20
19060;DHT22;9663;48.996;8.334;2023-10-09T02:26:04;17.70;52.30
19060;DHT22;9663;48.996;8.334;2023-10-09T02:28:35;17.70;52.30
19060;DHT22;9663;48.996;8.334;2023-10-09T02:31:09;17.70;52.50
19060;DHT22;9663;48.996;8.334;2023-10-09T02:33:36;17.70;52.50
19060;DHT22;9663;48.996;8.334;2023-10-09T02:36:07;17.70;52.50
19060;DHT22;9663;48.996;8.334;2023-10-09T02:38:34;17.70;52.50
19060;DHT22;9663;48.996;8.334;2023-10-09T02:41:06;17.60;53.20
19060;DHT22;9663;48.996;8.334;2023-10-09T02:43:33;17.60;52.60
19060;DHT22;9663;48.996;8.334;2023-10-09T02:46:11;17.60;52.70
19060;DHT22;9663;48.996;8.334;2023-10-09T02:48:49;17.60;52.70
19060;DHT22;9663;48.996;8.334;2023-10-09T02:51:19;17.50;52.90
19060;DHT22;9663;48.996;8.334;2023-10-09T02:54:09;17.50;52.80
19060;DHT22;9663;48.996;8.334;2023-10-09T02:56:45;17.50;52.80
19060;DHT22;9663;48.996;8.334;2023-10-09T02:59:20;17.50;52.90
19060;DHT22;9663;48.996;8.334;2023-10-09T03:01:50;17.60;52.90
19060;DHT22;9663;48.996;8.334;2023-10-09T03:04:18;17.50;53.00
19060;DHT22;9663;48.996;8.334;2023-10-09T03:06:45;17.50;53.00
19060;DHT22;9663;48.996;8.334;2023-10-09T03:09:18;17.50;53.10
19060;DHT22;9663;48.996;8.334;2023-10-09T03:11:49;17.50;53.10
19060;DHT22;9663;48.996;8.334;2023-10-09T03:14:19;17.50;53.30
19060;DHT22;9663;48.996;8.334;2023-10-09T03:16:47;17.50;53.10
19060;DHT22;9663;48.996;8.334;2023-10-09T03:19:16;17.50;53.20
19060;DHT22;9663;48.996;8.334;2023-10-09T03:21:42;17.50;53.20
19060;DHT22;9663;48.996;8.334;2023-10-09T03:24:09;17.50;53.20
19060;DHT22;9663;48.996;8.334;2023-10-09T03:26:37;17.60;53.30
19060;DHT22;9663;48.996;8.334;2023-10-09T03:29:03;17.60;53.40
19060;DHT22;9663;48.996;8.334;2023-10-09T03:31:36;17.60;53.40
19060;DHT22;9663;48.996;8.334;2023-10-09T03:34:03;17.50;53.30
19060;DHT22;9663;48.996;8.334;2023-10-09T03:36:29;17.50;53.40
19060;DHT22;9663;48.996;8.334;2023-10-09T03:38:57;17.60;53.50
19060;DHT22;9663;48.996;8.334;2023-10-09T03:41:25;17.60;53.50
19060;DHT22;9663;48.996;8.334;2023-10-09T03:43:54;17.60;53.50
19060;DHT22;9663;48.996;8.334;2023-10-09T03:46:21;17.60;53.50
19060;DHT22;9663;48.996;8.334;2023-10-09T03:48:49;17.60;53.50
19060;DHT22;9663;48.996;8.334;2023-10-09T03:51:15;17.70;53.60
19060;DHT22;9663;48.996;8.334;2023-10-09T03:53:51;17.60;53.60
19060;DHT22;9663;48.996;8.334;2023-10-09T03:56:20;17.60;53.80
19060;DHT22;9663;48.996;8.334;2023-10-09T03:58:48;17.60;53.60
19060;DHT22;9663;48.996;8.334;2023-10-09T04:03:52;17.60;53.60
19060;DHT22;9663;48.996;8.334;2023-10-09T04:06:29;17.60;53.70
19060;DHT22;9663;48.996;8.334;2023-10-09T04:09:08;17.60;53.70
19060;DHT22;9663;48.996;8.334;2023-10-09T04:11:50;17.60;54.10
19060;DHT22;9663;48.996;8.334;2023-10-09T04:14:37;17.60;53.70
19060;DHT22;9663;48.996;8.334;2023-10-09T04:17:13;17.60;53.80
19060;DHT22;9663;48.996;8.334;2023-10-09T04:19:48;17.60;53.80
19060;DHT22;9663;48.996;8.334;2023-10-09T04:22:24;17.60;53.80
19060;DHT22;9663;48.996;8.334;2023-10-09T04:24:53;17.60;53.80
19060;DHT22;9663;48.996;8.334;2023-10-09T04:27:19;17.50;53.90
19060;DHT22;9663;48.996;8.334;2023-10-09T04:29:52;17.50;53.90
19060;DHT22;9663;48.996;8.334;2023-10-09T04:32:19;17.50;54.00
19060;DHT22;9663;48.996;8.334;2023-10-09T04:34:50;17.50;54.10
19060;DHT22;9663;48.996;8.334;2023-10-09T04:37:42;17.50;54.10
19060;DHT22;9663;48.996;8.334;2023-10-09T04:40:10;17.50;54.10
19060;DHT22;9663;48.996;8.334;2023-10-09T04:42:59;17.50;54.10
19060;DHT22;9663;48.996;8.334;2023-10-09T04:45:27;17.50;54.10
19060;DHT22;9663;48.996;8.334;2023-10-09T04:48:11;17.40;54.30
19060;DHT22;9663;48.996;8.334;2023-10-09T04:50:37;17.40;54.10
19060;DHT22;9663;48.996;8.334;2023-10-09T04:53:23;17.40;54.20
19060;DHT22;9663;48.996;8.334;2023-10-09T04:55:49;17.30;54.10
19060;DHT22;9663;48.996;8.334;2023-10-09T04:58:23;17.40;54.20
19060;DHT22;9663;48.996;8.334;2023-10-09T05:00:53;17.40;54.30
19060;DHT22;9663;48.996;8.334;2023-10-09T05:03:23;17.40;54.30
19060;DHT22;9663;48.996;8.334;2023-10-09T05:05:52;17.30;54.30
19060;DHT22;9663;48.996;8.334;2023-10-09T05:08:25;17.40;54.40
19060;DHT22;9663;48.996;8.334;2023-10-09T05:11:03;17.30;54.40
19060;DHT22;9663;48.996;8.334;2023-10-09T05:13:33;17.30;54.70
19060;DHT22;9663;48.996;8.334;2023-10-09T05:16:14;17.30;54.50
19060;DHT22;9663;48.996;8.334;2023-10-09T05:18:46;17.30;54.60
19060;DHT22;9663;48.996;8.334;2023-10-09T05:21:40;17.30;54.50
19060;DHT22;9663;48.996;8.334;2023-10-09T05:24:10;17.40;54.50
19060;DHT22;9663;48.996;8.334;2023-10-09T05:26:46;17.40;54.50
19060;DHT22;9663;48.996;8.334;2023-10-09T05:29:24;17.30;54.80
19060;DHT22;9663;48.996;8.334;2023-10-09T05:32:13;17.40;54.90
19060;DHT22;9663;48.996;8.334;2023-10-09T05:34:43;17.40;54.60
19060;DHT22;9663;48.996;8.334;2023-10-09T05:37:26;17.40;54.60
19060;DHT22;9663;48.996;8.334;2023-10-09T05:40:00;17.40;54.60
19060;DHT22;9663;48.996;8.334;2023-10-09T05:42:33;17.30;54.60
19060;DHT22;9663;48.996;8.334;2023-10-09T05:45:05;17.30;54.70
19060;DHT22;9663;48.996;8.334;2023-10-09T05:48:01;17.30;54.70
19060;DHT22;9663;48.996;8.334;2023-10-09T05:50:52;17.30;55.30
19060;DHT22;9663;48.996;8.334;2023-10-09T05:53:38;17.30;54.70
19060;DHT22;9663;48.996;8.334;2023-10-09T05:56:11;17.30;54.80
19060;DHT22;9663;48.996;8.334;2023-10-09T05:58:55;17.30;54.80
19060;DHT22;9663;48.996;8.334;2023-10-09T06:01:40;17.30;54.80
19060;DHT22;9663;48.996;8.334;2023-10-09T06:04:24;17.30;54.90
19060;DHT22;9663;48.996;8.334;2023-10-09T06:07:14;17.30;54.90
19060;DHT22;9663;48.996;8.334;2023-10-09T06:09:47;17.40;55.00
19060;DHT22;9663;48.996;8.334;2023-10-09T06:12:18;17.40;55.00
19060;DHT22;9663;48.996;8.334;2023-10-09T06:14:57;17.50;55.10
19060;DHT22;9663;48.996;8.334;2023-10-09T06:17:41;17.50;55.10
19060;DHT22;9663;48.996;8.334;2023-10-09T06:20:15;17.50;55.10
19060;DHT22;9663;48.996;8.334;2023-10-09T06:23:01;17.60;55.10
19060;DHT22;9663;48.996;8.334;2023-10-09T06:25:44;17.60;55.00
19060;DHT22;9663;48.996;8.334;2023-10-09T06:28:28;17.60;55.00
19060;DHT22;9663;48.996;8.334;2023-10-09T06:30:59;17.70;55.00
19060;DHT22;9663;48.996;8.334;2023-10-09T06:33:45;17.70;55.00
19060;DHT22;9663;48.996;8.334;2023-10-09T06:36:30;17.80;55.00
19060;DHT22;9663;48.996;8.334;2023-10-09T06:38:56;17.80;55.00
19060;DHT22;9663;48.996;8.334;2023-10-09T06:41:42;17.80;55.00
19060;DHT22;9663;48.996;8.334;2023-10-09T06:44:10;17.90;55.00
19060;DHT22;9663;48.996;8.334;2023-10-09T06:46:56;17.90;55.10
19060;DHT22;9663;48.996;8.334;2023-10-09T06:49:33;17.90;55.00
19060;DHT22;9663;48.996;8.334;2023-10-09T06:52:01;18.00;55.10
19060;DHT22;9663;48.996;8.334;2023-10-09T06:54:42;18.10;55.10
19060;DHT22;9663;48.996;8.334;2023-10-09T06:57:16;18.20;55.10
19060;DHT22;9663;48.996;8.334;2023-10-09T07:00:03;18.20;55.00
19060;DHT22;9663;48.996;8.334;2023-10-09T07:03:01;18.30;55.00
19060;DHT22;9663;48.996;8.334;2023-10-09T07:05:37;18.30;54.90
19060;DHT22;9663;48.996;8.334;2023-10-09T07:08:23;18.40;54.90
19060;DHT22;9663;48.996;8.334;2023-10-09T07:11:00;18.40;54.80
19060;DHT22;9663;48.996;8.334;2023-10-09T07:13:46;18.50;54.80
19060;DHT22;9663;48.996;8.334;2023-10-09T07:16:23;18.50;54.80
19060;DHT22;9663;48.996;8.334;2023-10-09T07:19:04;18.60;54.90
19060;DHT22;9663;48.996;8.334;2023-10-09T07:21:56;18.60;54.80
19060;DHT22;9663;48.996;8.334;2023-10-09T07:24:31;18.70;54.90
19060;DHT22;9663;48.996;8.334;2023-10-09T07:27:09;18.80;54.80
19060;DHT22;9663;48.996;8.334;2023-10-09T07:29:39;18.80;54.80
19060;DHT22;9663;48.996;8.334;2023-10-09T07:32:14;18.90;54.80
19060;DHT22;9663;48.996;8.334;2023-10-09T07:34:48;18.90;54.70
19060;DHT22;9663;48.996;8.334;2023-10-09T07:37:33;19.00;54.80
19060;DHT22;9663;48.996;8.334;2023-10-09T07:40:03;19.10;55.00
19060;DHT22;9663;48.996;8.334;2023-10-09T07:42:34;19.20;54.70
19060;DHT22;9663;48.996;8.334;2023-10-09T07:45:06;19.20;54.70
19060;DHT22;9663;48.996;8.334;2023-10-09T07:47:58;19.30;54.60
19060;DHT22;9663;48.996;8.334;2023-10-09T07:50:35;19.40;54.60
19060;DHT22;9663;48.996;8.334;2023-10-09T07:53:15;19.40;54.60
19060;DHT22;9663;48.996;8.334;2023-10-09T07:55:44;19.50;54.50
19060;DHT22;9663;48.996;8.334;2023-10-09T07:58:33;19.60;54.40
19060;DHT22;9663;48.996;8.334;2023-10-09T08:01:11;19.70;54.30
19060;DHT22;9663;48.996;8.334;2023-10-09T08:03:59;19.70;54.30
19060;DHT22;9663;48.996;8.334;2023-10-09T08:06:37;19.80;54.20
19060;DHT22;9663;48.996;8.334;2023-10-09T08:09:09;19.90;54.20
19060;DHT22;9663;48.996;8.334;2023-10-09T08:11:39;20.00;54.20
19060;DHT22;9663;48.996;8.334;2023-10-09T08:14:13;20.00;54.80
19060;DHT22;9663;48.996;8.334;2023-10-09T08:16:58;20.10;54.10
19060;DHT22;9663;48.996;8.334;2023-10-09T08:19:39;20.20;54.00
19060;DHT22;9663;48.996;8.334;2023-10-09T08:22:37;20.20;53.90
19060;DHT22;9663;48.996;8.334;2023-10-09T08:25:12;20.30;53.90
19060;DHT22;9663;48.996;8.334;2023-10-09T08:28:02;20.50;54.00
19060;DHT22;9663;48.996;8.334;2023-10-09T08:30:47;20.50;53.80
19060;DHT22;9663;48.996;8.334;2023-10-09T08:33:29;20.60;53.70
19060;DHT22;9663;48.996;8.334;2023-10-09T08:36:10;20.70;53.70
19060;DHT22;9663;48.996;8.334;2023-10-09T08:38:40;20.80;53.80
19060;DHT22;9663;48.996;8.334;2023-10-09T08:41:12;20.90;53.80
19060;DHT22;9663;48.996;8.334;2023-10-09T08:43:47;21.00;53.70
19060;DHT22;9663;48.996;8.334;2023-10-09T08:46:27;21.10;53.80
19060;DHT22;9663;48.996;8.334;2023-10-09T08:48:57;21.20;53.70
19060;DHT22;9663;48.996;8.334;2023-10-09T08:51:28;21.40;53.60
19060;DHT22;9663;48.996;8.334;2023-10-09T08:53:55;21.50;53.50
19060;DHT22;9663;48.996;8.334;2023-10-09T08:56:22;21.60;53.40
19060;DHT22;9663;48.996;8.334;2023-10-09T08:59:06;21.70;53.30
19060;DHT22;9663;48.996;8.334;2023-10-09T09:01:31;21.80;53.00
19060;DHT22;9663;48.996;8.334;2023-10-09T09:03:58;21.90;52.90
19060;DHT22;9663;48.996;8.334;2023-10-09T09:06:36;22.00;52.80
19060;DHT22;9663;48.996;8.334;2023-10-09T09:09:14;22.20;52.80
19060;DHT22;9663;48.996;8.334;2023-10-09T09:11:41;22.30;52.70
19060;DHT22;9663;48.996;8.334;2023-10-09T09:14:14;22.50;52.90
19060;DHT22;9663;48.996;8.334;2023-10-09T09:16:45;22.70;52.70
19060;DHT22;9663;48.996;8.334;2023-10-09T09:19:14;22.90;52.70
19060;DHT22;9663;48.996;8.334;2023-10-09T09:21:50;23.10;52.50
19060;DHT22;9663;48.996;8.334;2023-10-09T09:24:24;23.30;52.10
19060;DHT22;9663;48.996;8.334;2023-10-09T09:26:55;23.40;51.80
19060;DHT22;9663;48.996;8.334;2023-10-09T09:32:10;23.70;51.30
19060;DHT22;9663;48.996;8.334;2023-10-09T09:34:50;23.80;51.20
19060;DHT22;9663;48.996;8.334;2023-10-09T09:37:28;23.90;51.20
19060;DHT22;9663;48.996;8.334;2023-10-09T09:40:02;24.00;51.20
19060;DHT22;9663;48.996;8.334;2023-10-09T09:42:42;24.20;50.90
19060;DHT22;9663;48.996;8.334;2023-10-09T09:45:14;24.30;51.00
19060;DHT22;9663;48.996;8.334;2023-10-09T09:47:44;24.50;50.80
19060;DHT22;9663;48.996;8.334;2023-10-09T09:50:17;24.60;50.70
19060;DHT22;9663;48.996;8.334;2023-10-09T09:52:55;24.70;50.40
19060;DHT22;9663;48.996;8.334;2023-10-09T09:55:31;24.80;50.30
19060;DHT22;9663;48.996;8.334;2023-10-09T09:58:01;24.90;50.00
19060;DHT22;9663;48.996;8.334;2023-10-09T10:00:33;25.00;49.80
19060;DHT22;9663;48.996;8.334;2023-10-09T10:03:54;25.10;49.70
19060;DHT22;9663;48.996;8.334;2023-10-09T10:06:04;25.20;50.10
19060;DHT22;9663;48.996;8.334;2023-10-09T10:08:35;25.30;49.30
19060;DHT22;9663;48.996;8.334;2023-10-09T10:11:05;25.30;49.30
19060;DHT22;9663;48.996;8.334;2023-10-09T10:16:07;25.30;48.90
19060;DHT22;9663;48.996;8.334;2023-10-09T10:19:15;25.30;49.00
19060;DHT22;9663;48.996;8.334;2023-10-09T10:21:43;25.30;48.90
19060;DHT22;9663;48.996;8.334;2023-10-09T10:35:18;25.80;49.10
19060;DHT22;9663;48.996;8.334;2023-10-09T10:38:03;26.10;49.30
19060;DHT22;9663;48.996;8.334;2023-10-09T10:40:46;26.30;49.80
19060;DHT22;9663;48.996;8.334;2023-10-09T10:43:22;26.50;48.80
19060;DHT22;9663;48.996;8.334;2023-10-09T10:46:12;26.60;48.40
19060;DHT22;9663;48.996;8.334;2023-10-09T10:48:58;26.70;48.00
19060;DHT22;9663;48.996;8.334;2023-10-09T10:51:26;26.60;47.00
19060;DHT22;9663;48.996;8.334;2023-10-09T10:54:01;26.60;47.40
19060;DHT22;9663;48.996;8.334;2023-10-09T10:57:03;26.40;47.20
19060;DHT22;9663;48.996;8.334;2023-10-09T10:59:45;26.30;47.20
19060;DHT22;9663;48.996;8.334;2023-10-09T11:02:11;26.10;47.20
19060;DHT22;9663;48.996;8.334;2023-10-09T11:04:39;26.00;47.20
19060;DHT22;9663;48.996;8.334;2023-10-09T11:07:07;25.90;47.30
19060;DHT22;9663;48.996;8.334;2023-10-09T11:15:14;25.60;47.50
19060;DHT22;9663;48.996;8.334;2023-10-09T11:18:03;25.50;47.70
19060;DHT22;9663;48.996;8.334;2023-10-09T11:20:37;25.40;47.50
19060;DHT22;9663;48.996;8.334;2023-10-09T11:23:05;25.40;47.80
19060;DHT22;9663;48.996;8.334;2023-10-09T11:25:38;25.40;48.00
19060;DHT22;9663;48.996;8.334;2023-10-09T11:28:22;25.40;48.10
19060;DHT22;9663;48.996;8.334;2023-10-09T11:31:09;25.50;48.20
19060;DHT22;9663;48.996;8.334;2023-10-09T11:33:50;25.60;48.40
19060;DHT22;9663;48.996;8.334;2023-10-09T11:36:18;25.80;48.20
19060;DHT22;9663;48.996;8.334;2023-10-09T11:38:58;25.80;48.30
19060;DHT22;9663;48.996;8.334;2023-10-09T11:41:43;26.00;48.30
19060;DHT22;9663;48.996;8.334;2023-10-09T11:44:10;26.30;48.20
19060;DHT22;9663;48.996;8.334;2023-10-09T11:47:02;26.50;48.30
19060;DHT22;9663;48.996;8.334;2023-10-09T11:49:55;26.80;47.70
19060;DHT22;9663;48.996;8.334;2023-10-09T11:52:32;27.20;47.80
19060;DHT22;9663;48.996;8.334;2023-10-09T11:55:02;27.50;47.60
19060;DHT22;9663;48.996;8.334;2023-10-09T11:57:28;27.90;47.50
19060;DHT22;9663;48.996;8.334;2023-10-09T11:59:59;28.20;47.60
19060;DHT22;9663;48.996;8.334;2023-10-09T12:02:26;28.80;47.70
19060;DHT22;9663;48.996;8.334;2023-10-09T12:04:53;29.60;47.80
19060;DHT22;9663;48.996;8.334;2023-10-09T12:07:25;30.50;47.10
19060;DHT22;9663;48.996;8.334;2023-10-09T12:09:51;31.40;46.00
19060;DHT22;9663;48.996;8.334;2023-10-09T12:12:21;32.20;45.40
19060;DHT22;9663;48.996;8.334;2023-10-09T12:14:52;32.90;44.20
19060;DHT22;9663;48.996;8.334;2023-10-09T12:17:18;33.20;43.10
19060;DHT22;9663;48.996;8.334;2023-10-09T12:19:44;33.40;42.10
19060;DHT22;9663;48.996;8.334;2023-10-09T12:22:10;33.30;41.30
19060;DHT22;9663;48.996;8.334;2023-10-09T12:24:36;33.30;41.30
19060;DHT22;9663;48.996;8.334;2023-10-09T12:27:08;33.30;41.40
19060;DHT22;9663;48.996;8.334;2023-10-09T12:29:37;33.30;40.50
19060;DHT22;9663;48.996;8.334;2023-10-09T12:32:03;33.30;40.70
19060;DHT22;9663;48.996;8.334;2023-10-09T12:34:35;33.40;41.20
19060;DHT22;9663;48.996;8.334;2023-10-09T12:37:04;33.70;41.20
19060;DHT22;9663;48.996;8.334;2023-10-09T12:39:30;34.10;41.30
19060;DHT22;9663;48.996;8.334;2023-10-09T12:41:59;34.40;39.90
19060;DHT22;9663;48.996;8.334;2023-10-09T12:44:35;34.60;39.30
19060;DHT22;9663;48.996;8.334;2023-10-09T12:47:08;34.70;38.70
19060;DHT22;9663;48.996;8.334;2023-10-09T12:49:36;34.90;38.30
19060;DHT22;9663;48.996;8.334;2023-10-09T12:52:09;34.90;38.50
19060;DHT22;9663;48.996;8.334;2023-10-09T12:54:42;35.00;38.20
19060;DHT22;9663;48.996;8.334;2023-10-09T12:57:09;35.10;37.70
19060;DHT22;9663;48.996;8.334;2023-10-09T12:59:39;35.20;37.20
19060;DHT22;9663;48.996;8.334;2023-10-09T13:02:14;35.10;36.90
19060;DHT22;9663;48.996;8.334;2023-10-09T13:04:59;35.00;36.70
19060;DHT22;9663;48.996;8.334;2023-10-09T13:07:30;34.90;36.90
19060;DHT22;9663;48.996;8.334;2023-10-09T13:09:56;34.90;36.60
19060;DHT22;9663;48.996;8.334;2023-10-09T13:12:34;35.00;37.10
19060;DHT22;9663;48.996;8.334;2023-10-09T13:15:11;35.20;37.00
19060;DHT22;9663;48.996;8.334;2023-10-09T13:17:37;35.50;36.20
19060;DHT22;9663;48.996;8.334;2023-10-09T13:20:05;35.70;36.50
19060;DHT22;9663;48.996;8.334;2023-10-09T13:22:42;35.70;35.60
19060;DHT22;9663;48.996;8.334;2023-10-09T13:25:09;35.80;35.50
19060;DHT22;9663;48.996;8.334;2023-10-09T13:27:42;35.80;35.00
19060;DHT22;9663;48.996;8.334;2023-10-09T13:30:19;35.80;35.00
19060;DHT22;9663;48.996;8.334;2023-10-09T13:32:49;35.80;34.90
19060;DHT22;9663;48.996;8.334;2023-10-09T13:35:19;35.80;34.80
19060;DHT22;9663;48.996;8.334;2023-10-09T13:37:45;35.70;34.30
19060;DHT22;9663;48.996;8.334;2023-10-09T13:40:22;35.70;34.30
19060;DHT22;9663;48.996;8.334;2023-10-09T13:42:55;35.10;32.30
19060;DHT22;9663;48.996;8.334;2023-10-09T13:45:25;34.90;33.50
19060;DHT22;9663;48.996;8.334;2023-10-09T13:47:59;34.40;33.10
19060;DHT22;9663;48.996;8.334;2023-10-09T13:50:28;34.10;33.50
19060;DHT22;9663;48.996;8.334;2023-10-09T13:52:57;33.80;34.30
19060;DHT22;9663;48.996;8.334;2023-10-09T13:55:23;33.50;34.30
19060;DHT22;9663;48.996;8.334;2023-10-09T13:57:57;33.20;34.20
19060;DHT22;9663;48.996;8.334;2023-10-09T14:00:23;32.90;34.30
19060;DHT22;9663;48.996;8.334;2023-10-09T14:03:02;32.60;34.70
19060;DHT22;9663;48.996;8.334;2023-10-09T14:05:37;32.30;34.90
19060;DHT22;9663;48.996;8.334;2023-10-09T14:08:10;32.00;35.20
19060;DHT22;9663;48.996;8.334;2023-10-09T14:10:37;31.80;35.40
19060;DHT22;9663;48.996;8.334;2023-10-09T14:13:04;31.70;35.60
19060;DHT22;9663;48.996;8.334;2023-10-09T14:15:37;31.60;35.90
19060;DHT22;9663;48.996;8.334;2023-10-09T14:18:06;31.40;36.00
19060;DHT22;9663;48.996;8.334;2023-10-09T14:20:37;31.40;36.80
19060;DHT22;9663;48.996;8.334;2023-10-09T14:23:03;31.30;36.40
19060;DHT22;9663;48.996;8.334;2023-10-09T14:25:36;31.20;36.50
19060;DHT22;9663;48.996;8.334;2023-10-09T14:28:06;31.20;36.60
19060;DHT22;9663;48.996;8.334;2023-10-09T14:30:37;31.20;36.80
19060;DHT22;9663;48.996;8.334;2023-10-09T14:33:19;31.20;36.80
19060;DHT22;9663;48.996;8.334;2023-10-09T14:35:48;31.30;37.00
19060;DHT22;9663;48.996;8.334;2023-10-09T14:38:14;31.40;36.70
19060;DHT22;9663;48.996;8.334;2023-10-09T14:40:46;31.60;36.60
19060;DHT22;9663;48.996;8.334;2023-10-09T14:43:14;31.70;36.50
19060;DHT22;9663;48.996;8.334;2023-10-09T14:45:46;31.90;36.80
19060;DHT22;9663;48.996;8.334;2023-10-09T14:48:19;32.20;36.80
19060;DHT22;9663;48.996;8.334;2023-10-09T14:50:52;32.60;35.10
19060;DHT22;9663;48.996;8.334;2023-10-09T14:53:22;32.90;35.40
19060;DHT22;9663;48.996;8.334;2023-10-09T14:55:59;32.90;33.60
19060;DHT22;9663;48.996;8.334;2023-10-09T14:58:27;32.70;33.20
19060;DHT22;9663;48.996;8.334;2023-10-09T15:00:57;32.50;34.00
19060;DHT22;9663;48.996;8.334;2023-10-09T15:03:22;32.40;34.80
19060;DHT22;9663;48.996;8.334;2023-10-09T15:05:48;31.90;33.60
19060;DHT22;9663;48.996;8.334;2023-10-09T15:08:15;31.80;34.30
19060;DHT22;9663;48.996;8.334;2023-10-09T15:10:47;31.60;34.30
19060;DHT22;9663;48.996;8.334;2023-10-09T15:13:20;31.40;34.10
19060;DHT22;9663;48.996;8.334;2023-10-09T15:15:46;31.10;34.20
19060;DHT22;9663;48.996;8.334;2023-10-09T15:18:16;30.80;34.40
19060;DHT22;9663;48.996;8.334;2023-10-09T15:20:44;30.60;34.60
19060;DHT22;9663;48.996;8.334;2023-10-09T15:23:10;30.30;34.60
19060;DHT22;9663;48.996;8.334;2023-10-09T15:25:36;30.10;34.90
19060;DHT22;9663;48.996;8.334;2023-10-09T15:28:05;29.90;35.00
19060;DHT22;9663;48.996;8.334;2023-10-09T15:30:33;29.70;35.20
19060;DHT22;9663;48.996;8.334;2023-10-09T15:32:59;29.40;35.30
19060;DHT22;9663;48.996;8.334;2023-10-09T15:35:27;29.30;35.70
19060;DHT22;9663;48.996;8.334;2023-10-09T15:37:54;29.20;35.70
19060;DHT22;9663;48.996;8.334;2023-10-09T15:40:20;29.10;35.80
19060;DHT22;9663;48.996;8.334;2023-10-09T15:42:50;29.00;35.90
19060;DHT22;9663;48.996;8.334;2023-10-09T15:45:19;28.90;36.00
19060;DHT22;9663;48.996;8.334;2023-10-09T15:47:47;28.80;36.20
19060;DHT22;9663;48.996;8.334;2023-10-09T15:50:16;28.60;36.30
19060;DHT22;9663;48.996;8.334;2023-10-09T15:52:43;28.50;36.50
19060;DHT22;9663;48.996;8.334;2023-10-09T15:55:09;28.40;36.50
19060;DHT22;9663;48.996;8.334;2023-10-09T15:57:41;28.30;36.70
19060;DHT22;9663;48.996;8.334;2023-10-09T16:00:08;28.20;36.80
19060;DHT22;9663;48.996;8.334;2023-10-09T16:02:44;28.10;36.90
19060;DHT22;9663;48.996;8.334;2023-10-09T16:05:10;27.90;36.90
19060;DHT22;9663;48.996;8.334;2023-10-09T16:07:38;27.90;37.10
19060;DHT22;9663;48.996;8.334;2023-10-09T16:10:06;27.80;37.20
19060;DHT22;9663;48.996;8.334;2023-10-09T16:12:34;27.70;37.30
19060;DHT22;9663;48.996;8.334;2023-10-09T16:15:02;27.60;37.40
19060;DHT22;9663;48.996;8.334;2023-10-09T16:17:31;27.40;37.40
19060;DHT22;9663;48.996;8.334;2023-10-09T16:20:01;27.40;37.60
19060;DHT22;9663;48.996;8.334;2023-10-09T16:22:27;27.30;37.70
19060;DHT22;9663;48.996;8.334;2023-10-09T16:24:55;27.20;37.80
19060;DHT22;9663;48.996;8.334;2023-10-09T16:27:25;27.10;37.90
19060;DHT22;9663;48.996;8.334;2023-10-09T16:29:53;27.00;38.00
19060;DHT22;9663;48.996;8.334;2023-10-09T16:32:19;27.00;38.10
19060;DHT22;9663;48.996;8.334;2023-10-09T16:34:50;26.90;38.20
19060;DHT22;9663;48.996;8.334;2023-10-09T16:37:16;26.80;38.30
19060;DHT22;9663;48.996;8.334;2023-10-09T16:39:48;26.70;38.40
19060;DHT22;9663;48.996;8.334;2023-10-09T16:42:14;26.60;38.40
19060;DHT22;9663;48.996;8.334;2023-10-09T16:44:40;26.50;38.60
19060;DHT22;9663;48.996;8.334;2023-10-09T16:47:06;26.40;38.60
19060;DHT22;9663;48.996;8.334;2023-10-09T16:49:32;26.30;38.80
19060;DHT22;9663;48.996;8.334;2023-10-09T16:51:58;26.20;38.80
19060;DHT22;9663;48.996;8.334;2023-10-09T16:54:25;26.20;39.00